Аэропорт: Национальный аэропорт Минск. Минск

ICAO: UMMS

METAR:
2020-06-01 02:30:00
UMMS 010230Z 02006MPS CAVOK 07/01 Q1015 R88/D NOSIG
METAR:
2020-05-31 23:02:00
TAF UMMS 312302Z 0100/0124 02006G11MPS 9999 BKN015 TEMPO 0100/0109 04010G15MPS 3000 -SHRA BKN004 SCT020CB TEMPO 0109/0124 02011G16MPS 2000 TSRA BKN004 BKN020CB